Time;durP1;ratioP1;P1;durP2;ratioP2;P2;SDS_P1;SDS_P2;PMS_P1;PMS_P2;Temp;Humidity;BMP_temperature;BMP_pressure;BME280_temperature;BME280_humidity;BME280_pressure;Samples;Min_cycle;Max_cycle;Signal;HPM_P1;HPM_P2
2023/08/31 00:03:08;;;;;;;4.82;4.43;;;14.20;99.90;;;14.67;100.00;97390.28;10288165;28;20242;-80
2023/08/31 00:08:12;;;;;;;5.15;4.68;;;14.20;99.90;;;14.60;100.00;97396.94;10274743;28;20251;-83
2023/08/31 00:13:16;;;;;;;4.53;4.10;;;14.20;99.90;;;14.54;100.00;97399.31;10293335;28;20335;-80
2023/08/31 00:18:20;;;;;;;4.63;4.22;;;14.10;99.90;;;14.56;100.00;97388.22;10275224;28;20323;-79
2023/08/31 00:23:24;;;;;;;4.72;4.35;;;14.10;99.90;;;14.54;100.00;97410.47;10274475;28;20604;-80
2023/08/31 00:28:27;;;;;;;4.20;3.80;;;14.00;99.90;;;14.48;100.00;97417.94;10299904;28;20310;-81
2023/08/31 00:33:33;;;;;;;4.88;4.47;;;14.00;99.90;;;14.49;100.00;97418.81;10288572;28;20606;-80
2023/08/31 00:38:36;;;;;;;4.72;4.32;;;14.00;99.90;;;14.55;100.00;97412.22;10275522;28;20815;-80
2023/08/31 00:43:40;;;;;;;6.45;4.57;;;14.00;99.90;;;14.55;100.00;97407.06;10277397;28;20248;-80
2023/08/31 00:48:45;;;;;;;5.55;5.00;;;14.00;99.90;;;14.45;100.00;97414.38;10275848;28;20594;-79
2023/08/31 00:53:48;;;;;;;6.00;4.30;;;14.00;99.90;;;14.44;100.00;97418.63;10273707;28;20223;-80
2023/08/31 00:58:51;;;;;;;5.15;4.35;;;14.00;99.90;;;14.40;100.00;97425.38;10276822;28;20254;-80
2023/08/31 01:04:07;;;;;;;5.28;4.78;;;13.90;99.90;;;14.36;100.00;97428.66;10292471;28;20234;-82
2023/08/31 01:09:20;;;;;;;4.63;4.22;;;13.80;99.90;;;14.38;100.00;97428.72;10287963;28;20275;-80
2023/08/31 01:14:30;;;;;;;5.28;4.78;;;13.80;99.90;;;14.23;100.00;97439.34;10280634;28;20330;-80
2023/08/31 01:19:46;;;;;;;5.75;4.90;;;13.70;99.90;;;14.12;100.00;97428.66;10274652;28;20240;-80
2023/08/31 01:24:52;;;;;;;4.88;4.40;;;13.60;99.90;;;14.05;100.00;97424.13;10275523;28;20227;-80
2023/08/31 01:29:56;;;;;;;5.30;4.90;;;13.50;99.90;;;13.96;100.00;97423.78;10283074;28;20632;-79
2023/08/31 01:35:01;;;;;;;5.30;4.72;;;13.40;99.90;;;13.88;100.00;97415.81;10279255;28;20223;-79
2023/08/31 01:40:12;;;;;;;4.68;4.10;;;13.30;99.90;;;13.85;100.00;97423.41;10282974;28;20241;-80
2023/08/31 01:45:19;;;;;;;4.70;4.30;;;13.30;99.90;;;13.72;100.00;97416.91;10279410;28;20236;-79
2023/08/31 01:50:24;;;;;;;5.03;4.65;;;13.10;99.90;;;13.71;100.00;97427.16;10321244;28;20322;-80
2023/08/31 01:55:29;;;;;;;4.82;4.32;;;13.10;99.90;;;13.49;100.00;97446.00;10279622;28;20268;-80
2023/08/31 02:00:34;;;;;;;5.10;4.68;;;12.90;99.90;;;13.48;100.00;97447.69;10280516;28;20235;-80
2023/08/31 02:05:38;;;;;;;5.00;4.60;;;12.90;99.90;;;13.38;100.00;97453.25;10279758;28;20231;-79
2023/08/31 02:10:42;;;;;;;4.78;4.40;;;12.80;99.90;;;13.36;100.00;97454.88;10278451;28;21566;-80
2023/08/31 02:15:45;;;;;;;4.85;4.32;;;12.80;99.90;;;13.34;100.00;97466.81;10280825;28;20235;-80
2023/08/31 02:20:48;;;;;;;5.10;4.10;;;12.80;99.90;;;13.33;100.00;97472.72;10280176;28;20234;-80
2023/08/31 02:25:53;;;;;;;4.20;3.90;;;12.70;99.90;;;13.34;100.00;97461.66;10279307;28;20231;-80
2023/08/31 02:31:01;;;;;;;5.05;4.55;;;12.80;99.90;;;13.40;100.00;97456.78;10295658;28;20226;-79
2023/08/31 02:36:05;;;;;;;5.28;4.25;;;12.80;99.90;;;13.33;100.00;97469.31;10278240;28;20250;-80
2023/08/31 02:41:09;;;;;;;4.45;4.15;;;12.80;99.90;;;13.32;100.00;97460.72;10295662;28;20267;-80
2023/08/31 02:46:13;;;;;;;4.75;4.13;;;12.80;99.90;;;13.26;100.00;97460.50;10277200;28;20273;-80
2023/08/31 02:51:16;;;;;;;5.80;4.30;;;12.70;99.90;;;13.22;100.00;97468.81;10313705;28;20238;-80
2023/08/31 02:56:20;;;;;;;5.57;4.75;;;12.70;99.90;;;13.26;100.00;97456.22;10284980;28;20227;-80
2023/08/31 03:01:24;;;;;;;4.50;3.67;;;12.70;99.90;;;13.26;100.00;97473.31;10293273;28;20227;-79
2023/08/31 03:06:27;;;;;;;5.32;4.85;;;12.70;99.90;;;13.33;100.00;97462.47;10287642;28;20235;-80
2023/08/31 03:11:31;;;;;;;4.82;4.32;;;12.70;99.90;;;13.37;100.00;97466.06;10282321;28;20692;-80
2023/08/31 03:16:35;;;;;;;4.85;4.55;;;12.80;99.90;;;13.39;100.00;97466.97;10283553;28;20222;-78
2023/08/31 03:21:38;;;;;;;5.03;4.50;;;12.80;99.90;;;13.38;100.00;97475.50;10313661;28;20282;-79
2023/08/31 03:26:42;;;;;;;5.35;4.72;;;12.80;99.90;;;13.40;100.00;97481.59;10279940;28;20224;-79
2023/08/31 03:31:45;;;;;;;5.78;5.38;;;12.80;99.90;;;13.41;100.00;97478.19;10276558;28;20238;-79
2023/08/31 03:36:49;;;;;;;5.28;4.75;;;12.80;99.90;;;13.31;100.00;97492.34;10278698;28;20744;-79
2023/08/31 03:41:54;;;;;;;5.45;5.05;;;12.70;99.90;;;13.33;100.00;97493.28;10279428;28;20757;-79
2023/08/31 03:46:57;;;;;;;5.82;5.25;;;12.70;99.90;;;13.20;100.00;97501.28;10279434;28;20306;-79
2023/08/31 03:52:00;;;;;;;4.82;4.32;;;12.60;99.90;;;13.13;100.00;97499.25;10300991;28;20243;-79
2023/08/31 03:57:05;;;;;;;7.40;5.50;;;12.50;99.90;;;13.01;100.00;97505.63;10279148;28;20326;-79
2023/08/31 04:02:08;;;;;;;5.10;4.70;;;12.40;99.90;;;13.00;100.00;97508.16;10302194;28;20237;-80
2023/08/31 04:07:12;;;;;;;6.65;5.25;;;12.40;99.90;;;13.04;100.00;97513.44;10275145;28;20231;-80
2023/08/31 04:12:16;;;;;;;5.95;5.45;;;12.50;99.90;;;13.04;100.00;97503.19;10279941;28;20235;-80
2023/08/31 04:17:19;;;;;;;6.05;5.45;;;12.50;99.90;;;13.14;100.00;97511.28;10281384;28;20246;-80
2023/08/31 04:22:22;;;;;;;5.55;5.05;;;12.60;99.90;;;13.20;100.00;97524.38;10275869;28;20248;-80
2023/08/31 04:27:27;;;;;;;5.53;5.03;;;12.70;99.90;;;13.27;100.00;97531.53;10278316;28;20306;-80
2023/08/31 04:32:30;;;;;;;5.60;4.93;;;12.60;99.90;;;13.31;100.00;97533.44;10285477;28;20255;-80
2023/08/31 04:37:34;;;;;;;6.18;5.63;;;12.70;99.90;;;13.27;100.00;97532.41;10314222;28;20717;-80
2023/08/31 04:42:40;;;;;;;6.28;5.63;;;12.70;99.90;;;13.28;100.00;97538.44;10299815;28;20228;-79
2023/08/31 04:47:43;;;;;;;5.82;5.30;;;12.70;99.90;;;13.36;100.00;97537.03;10278262;28;22992;-79
2023/08/31 04:52:47;;;;;;;5.53;5.03;;;12.80;99.90;;;13.43;100.00;97544.19;10270614;28;20259;-79
2023/08/31 04:57:51;;;;;;;4.82;4.43;;;12.80;99.90;;;13.44;100.00;97545.94;10269777;28;20232;-80
2023/08/31 05:02:54;;;;;;;6.13;5.53;;;12.80;99.90;;;13.53;100.00;97555.69;10315300;28;20727;-78
2023/08/31 05:07:58;;;;;;;5.15;4.75;;;12.90;99.90;;;13.60;100.00;97564.53;10291331;28;20236;-80
2023/08/31 05:13:04;;;;;;;6.28;5.22;;;12.90;99.90;;;13.58;100.00;97577.31;10303945;28;20274;-82
2023/08/31 05:18:08;;;;;;;5.35;5.00;;;13.00;99.90;;;13.67;100.00;97566.53;10305428;28;20240;-81
2023/08/31 05:23:11;;;;;;;5.72;5.28;;;13.00;99.90;;;13.64;100.00;97566.41;10277923;28;20351;-80
2023/08/31 05:28:17;;;;;;;5.85;5.35;;;13.00;99.90;;;13.83;100.00;97571.47;10292198;28;20291;-82
2023/08/31 05:33:22;;;;;;;6.80;6.30;;;13.10;99.90;;;13.74;100.00;97564.28;10299912;28;20332;-81
2023/08/31 05:38:25;;;;;;;5.68;5.18;;;13.10;99.90;;;13.73;100.00;97569.34;10276501;28;20232;-79
2023/08/31 05:43:29;;;;;;;6.53;5.97;;;13.10;99.90;;;13.77;100.00;97576.38;10286584;28;20310;-80
2023/08/31 05:48:32;;;;;;;6.22;5.63;;;13.10;99.90;;;13.89;100.00;97586.25;10301579;28;20260;-80
2023/08/31 05:53:36;;;;;;;6.15;5.65;;;13.30;99.90;;;14.04;100.00;97591.09;10293730;28;20224;-81
2023/08/31 05:58:40;;;;;;;8.95;6.18;;;13.40;99.90;;;14.05;100.00;97609.16;10289173;28;20603;-81
2023/08/31 06:03:44;;;;;;;6.68;6.00;;;13.40;99.90;;;14.09;100.00;97608.47;10292850;28;20227;-80
2023/08/31 06:08:48;;;;;;;6.30;5.70;;;13.50;99.90;;;14.20;100.00;97611.47;10310501;28;20224;-83
2023/08/31 06:14:01;;;;;;;6.15;5.70;;;13.50;99.90;;;14.23;100.00;97611.56;10293681;28;20219;-81
2023/08/31 06:19:17;;;;;;;7.40;6.20;;;13.50;99.90;;;14.29;100.00;97609.22;10311660;28;20230;-81
2023/08/31 06:24:29;;;;;;;6.30;5.70;;;13.60;99.90;;;14.63;100.00;97621.69;10287584;28;20306;-82
2023/08/31 06:29:43;;;;;;;5.85;5.30;;;13.90;99.90;;;14.79;100.00;97628.31;10285573;28;20776;-80
2023/08/31 06:35:02;;;;;;;6.13;5.53;;;14.00;99.90;;;14.81;100.00;97625.78;10283526;28;20229;-81
2023/08/31 06:40:10;;;;;;;5.75;4.85;;;14.10;99.90;;;15.12;100.00;97634.59;10297642;28;20231;-81
2023/08/31 06:45:17;;;;;;;6.45;4.82;;;14.40;99.90;;;15.32;100.00;97636.19;10282123;28;20223;-81
2023/08/31 06:50:20;;;;;;;6.93;4.63;;;14.50;99.90;;;15.41;100.00;97638.19;10297723;28;20234;-81
2023/08/31 06:55:23;;;;;;;7.22;5.60;;;14.60;99.90;;;15.43;100.00;97628.84;10280342;28;20232;-82
2023/08/31 07:00:28;;;;;;;6.07;5.30;;;14.60;99.90;;;15.74;100.00;97629.06;10283111;28;20235;-79
2023/08/31 07:05:36;;;;;;;6.32;4.35;;;14.90;99.90;;;16.09;100.00;97649.94;10280075;28;20224;-79
2023/08/31 07:10:39;;;;;;;5.22;3.50;;;15.20;99.90;;;16.49;100.00;97656.34;10277976;28;20246;-82
2023/08/31 07:15:44;;;;;;;4.35;3.40;;;15.70;99.90;;;16.73;100.00;97655.34;10295980;28;20298;-80
2023/08/31 07:20:48;;;;;;;7.35;3.45;;;15.90;99.90;;;16.87;100.00;97656.66;10288234;28;20238;-81
2023/08/31 07:25:51;;;;;;;4.32;3.70;;;16.00;99.90;;;17.10;100.00;97659.88;10310546;28;20314;-81
2023/08/31 07:31:04;;;;;;;6.32;3.17;;;16.10;99.90;;;17.19;100.00;97661.84;10287548;28;20257;-81
2023/08/31 07:36:11;;;;;;;4.85;3.10;;;16.30;99.90;;;17.29;95.37;97664.72;10292083;28;20232;-82
2023/08/31 07:41:14;;;;;;;5.28;3.20;;;16.30;99.90;;;17.56;95.98;97669.75;10296036;28;20277;-81
2023/08/31 07:46:19;;;;;;;3.75;2.78;;;16.60;99.90;;;18.09;92.38;97678.91;10304366;28;20254;-82
2023/08/31 07:51:24;;;;;;;4.38;3.22;;;17.20;99.90;;;17.97;90.58;97687.19;10300166;28;20252;-81
2023/08/31 07:56:27;;;;;;;3.95;3.10;;;17.00;99.90;;;17.87;89.01;97704.19;10295490;28;20235;-82
2023/08/31 08:01:32;;;;;;;4.65;3.15;;;16.80;99.90;;;17.71;89.00;97709.75;10275770;28;20251;-79
2023/08/31 08:06:35;;;;;;;4.47;3.38;;;16.60;99.90;;;17.56;89.75;97711.09;10272974;28;20668;-82
2023/08/31 08:11:38;;;;;;;5.20;3.50;;;16.60;99.90;;;17.67;89.93;97697.59;10272926;28;20635;-81
2023/08/31 08:16:43;;;;;;;3.88;3.22;;;16.60;99.90;;;17.99;88.70;97706.22;10300727;28;20235;-81
2023/08/31 08:21:47;;;;;;;5.15;3.65;;;17.00;99.90;;;18.32;87.58;97700.16;10263341;28;20740;-83
2023/08/31 08:26:51;;;;;;;3.30;2.95;;;17.30;99.90;;;18.30;82.89;97681.97;10277246;28;20226;-81
2023/08/31 08:31:55;;;;;;;3.15;2.95;;;17.50;99.90;;;18.71;82.09;97694.13;10274683;28;21036;-78
2023/08/31 08:37:00;;;;;;;3.63;2.83;;;17.70;99.90;;;18.89;81.38;97702.34;10266630;28;20228;-80
2023/08/31 08:42:09;;;;;;;5.55;3.35;;;17.80;99.90;;;18.93;79.52;97700.69;10280846;28;20724;-78
2023/08/31 08:47:16;;;;;;;3.10;2.83;;;17.90;99.90;;;19.26;78.28;97704.00;10271323;28;20231;-81
2023/08/31 08:52:19;;;;;;;3.35;2.88;;;18.20;99.90;;;19.36;76.31;97705.91;10282663;28;20480;-80
2023/08/31 08:57:27;;;;;;;3.35;2.90;;;18.50;99.90;;;19.64;73.64;97709.03;10269540;28;20251;-80
2023/08/31 09:02:45;;;;;;;3.05;2.75;;;18.70;99.90;;;19.67;68.33;97714.31;10275583;28;20716;-80
2023/08/31 09:08:03;;;;;;;3.40;2.90;;;18.60;99.90;;;19.75;66.77;97706.69;10265572;28;21003;-79
2023/08/31 09:13:08;;;;;;;3.90;2.97;;;18.70;99.90;;;19.49;67.76;97709.63;10273705;28;20247;-79
2023/08/31 09:18:17;;;;;;;4.03;3.00;;;18.50;99.90;;;19.28;65.01;97710.06;10282473;28;20278;-78
2023/08/31 09:23:21;;;;;;;3.65;3.10;;;18.10;99.90;;;18.94;66.69;97724.03;10268626;28;20281;-79
2023/08/31 09:28:27;;;;;;;4.60;2.90;;;17.80;99.90;;;18.43;66.59;97715.09;10277315;28;20530;-80
2023/08/31 09:33:32;;;;;;;4.28;3.15;;;17.40;99.90;;;18.20;69.16;97721.44;10280772;28;20342;-79
2023/08/31 09:38:44;;;;;;;3.78;3.17;;;17.30;99.90;;;18.27;71.39;97718.13;10278370;28;20791;-80
2023/08/31 09:43:48;;;;;;;3.90;3.20;;;17.40;99.90;;;18.38;71.86;97721.00;10279851;28;20246;-78
2023/08/31 09:48:54;;;;;;;4.75;2.90;;;17.60;99.90;;;18.78;72.19;97730.59;10278483;28;20832;-82
2023/08/31 09:54:01;;;;;;;4.70;3.08;;;18.10;99.90;;;18.89;70.07;97742.06;10283822;28;20243;-82
2023/08/31 09:59:16;;;;;;;4.43;3.00;;;18.10;99.90;;;18.98;72.23;97737.94;10294662;28;20237;-80
2023/08/31 10:04:21;;;;;;;3.03;2.63;;;18.20;99.90;;;19.70;64.27;97729.94;10280787;28;20275;-79
2023/08/31 10:09:26;;;;;;;4.03;3.10;;;19.10;99.90;;;20.28;60.85;97739.59;10277728;28;20242;-80
2023/08/31 10:14:29;;;;;;;3.72;2.90;;;19.50;99.90;;;20.24;56.60;97742.16;10267796;28;20612;-80
2023/08/31 10:19:34;;;;;;;4.22;2.95;;;19.30;99.90;;;19.65;61.53;97746.22;10257774;28;22346;-78
2023/08/31 10:25:00;;;;;;;4.55;2.70;;;18.70;99.90;;;18.86;66.08;97751.50;10262700;28;20232;-78
2023/08/31 10:30:16;;;;;;;4.00;2.95;;;18.00;99.90;;;18.58;69.48;97748.22;10270134;28;20258;-79
2023/08/31 10:35:20;;;;;;;3.70;3.13;;;17.70;99.90;;;18.95;67.54;97737.88;10294092;28;20258;-79
2023/08/31 10:40:25;;;;;;;4.00;2.63;;;18.20;99.90;;;19.30;65.76;97744.66;10271989;28;21874;-78
2023/08/31 10:45:28;;;;;;;5.40;2.90;;;18.60;99.90;;;19.92;60.93;97746.78;10257267;28;20220;-79
2023/08/31 10:50:42;;;;;;;4.25;2.95;;;19.30;99.90;;;20.00;59.20;97741.72;10261637;28;21267;-80
2023/08/31 10:55:55;;;;;;;5.00;2.85;;;19.50;99.90;;;20.53;59.25;97746.97;10257318;28;20228;-79
2023/08/31 11:00:59;;;;;;;4.60;3.10;;;20.00;99.90;;;20.56;53.66;97731.44;10263918;28;20227;-79
2023/08/31 11:06:03;;;;;;;4.50;2.67;;;19.70;99.90;;;20.52;54.38;97734.81;10272562;28;21075;-79
2023/08/31 11:11:06;;;;;;;4.18;2.90;;;19.60;99.90;;;20.16;55.28;97741.16;10280390;28;20696;-81
2023/08/31 11:16:12;;;;;;;3.85;2.60;;;19.20;99.90;;;20.24;53.20;97742.16;10282985;28;20327;-79
2023/08/31 11:21:17;;;;;;;5.00;2.70;;;19.50;99.90;;;20.35;51.56;97736.28;10303096;28;20242;-79
2023/08/31 11:26:21;;;;;;;4.05;3.00;;;19.60;99.90;;;20.47;51.54;97739.94;10290956;28;20719;-79
2023/08/31 11:31:25;;;;;;;4.32;2.38;;;19.60;99.90;;;20.36;51.49;97748.41;10297818;28;20512;-82
2023/08/31 11:36:29;;;;;;;4.38;3.00;;;19.40;99.90;;;20.33;51.69;97748.34;10305375;28;20255;-82
2023/08/31 11:41:36;;;;;;;5.00;2.67;;;19.30;99.90;;;20.22;53.90;97746.44;10327495;28;20234;-81
2023/08/31 11:46:41;;;;;;;5.57;3.00;;;19.40;99.90;;;20.55;51.02;97737.50;10329978;28;20286;-81
2023/08/31 11:51:46;;;;;;;3.72;2.75;;;19.80;99.30;;;20.66;50.87;97733.34;10322813;28;20241;-81
2023/08/31 11:56:56;;;;;;;3.78;2.72;;;19.90;99.20;;;20.77;50.04;97740.41;10321772;28;20227;-80
2023/08/31 12:01:59;;;;;;;3.35;2.75;;;20.10;98.40;;;20.83;49.59;97738.78;10323024;28;20270;-81
2023/08/31 12:07:06;;;;;;;4.72;3.00;;;20.10;97.90;;;20.97;48.67;97744.16;10318613;28;20227;-82
2023/08/31 12:12:09;;;;;;;5.30;2.88;;;20.20;97.10;;;21.33;49.23;97741.19;10316955;28;20244;-82
2023/08/31 12:17:12;;;;;;;3.20;2.78;;;20.40;97.90;;;21.35;49.53;97738.63;10320957;28;20607;-81
2023/08/31 12:22:18;;;;;;;4.25;2.70;;;20.50;97.90;;;20.79;49.55;97743.91;10324370;28;20230;-81
2023/08/31 12:27:21;;;;;;;4.25;2.92;;;20.00;97.50;;;20.72;48.73;97742.97;10316250;28;20223;-81
2023/08/31 12:32:25;;;;;;;4.75;3.00;;;19.80;97.30;;;21.11;48.41;97732.22;10313838;28;20716;-81
2023/08/31 12:37:29;;;;;;;4.70;2.50;;;20.00;97.30;;;21.02;49.48;97726.91;10320122;28;20230;-82
2023/08/31 12:42:33;;;;;;;4.70;2.90;;;20.00;98.30;;;21.03;49.68;97733.88;10331487;28;20250;-82
2023/08/31 12:47:36;;;;;;;3.80;3.00;;;20.20;97.90;;;21.38;48.50;97720.50;10307886;28;20235;-80
2023/08/31 12:52:44;;;;;;;3.60;2.78;;;20.40;97.50;;;21.28;47.89;97729.00;10303661;28;20227;-79
2023/08/31 12:57:47;;;;;;;5.78;3.10;;;20.30;96.90;;;21.27;49.31;97722.91;10308987;28;20321;-80
2023/08/31 13:02:51;;;;;;;4.45;2.92;;;20.40;97.60;;;21.18;47.61;97719.34;10311519;28;20589;-79
2023/08/31 13:07:56;;;;;;;3.45;2.60;;;20.30;96.10;;;21.13;47.54;97720.13;10312466;28;20227;-79
2023/08/31 13:13:00;;;;;;;4.55;3.30;;;20.30;96.00;;;21.03;49.54;97722.59;10309695;28;20290;-81
2023/08/31 13:18:05;;;;;;;4.25;2.85;;;20.20;97.40;;;20.91;50.61;97729.34;10304066;28;20250;-80
2023/08/31 13:23:09;;;;;;;5.18;3.17;;;19.90;98.20;;;20.82;51.68;97736.16;10306088;28;20231;-81
2023/08/31 13:28:13;;;;;;;5.10;2.65;;;19.90;99.00;;;20.76;50.78;97741.28;10307247;28;20231;-80
2023/08/31 13:33:16;;;;;;;4.15;2.95;;;19.70;98.50;;;20.61;51.83;97729.81;10311723;28;20956;-80
2023/08/31 13:38:21;;;;;;;5.22;3.38;;;19.70;99.30;;;20.67;51.84;97736.81;10313075;28;20230;-81
2023/08/31 13:43:26;;;;;;;5.72;2.67;;;19.70;99.50;;;20.87;53.01;97726.72;10308053;28;20232;-80
2023/08/31 13:48:29;;;;;;;4.88;2.85;;;19.90;99.90;;;20.79;50.41;97724.00;10319338;28;20305;-79
2023/08/31 13:53:36;;;;;;;3.95;2.70;;;19.90;98.40;;;20.82;51.21;97728.38;10313577;28;20242;-79
2023/08/31 13:58:40;;;;;;;5.15;2.95;;;19.80;99.10;;;20.63;54.58;97728.09;10316404;28;20239;-79
2023/08/31 14:03:44;;;;;;;4.60;3.08;;;19.70;99.90;;;20.54;55.14;97722.75;10315127;28;20223;-79
2023/08/31 14:08:49;;;;;;;6.10;3.40;;;19.60;99.90;;;20.52;54.27;97720.94;10315446;28;20342;-81
2023/08/31 14:13:52;;;;;;;4.57;3.10;;;19.60;99.90;;;20.66;53.03;97716.88;10319353;28;20346;-81
2023/08/31 14:18:56;;;;;;;4.22;3.17;;;19.80;99.70;;;20.62;53.31;97705.56;10318540;28;20226;-81
2023/08/31 14:24:01;;;;;;;4.15;2.92;;;19.70;99.70;;;20.62;52.44;97697.78;10322974;28;20313;-81
2023/08/31 14:29:04;;;;;;;5.03;2.95;;;19.60;99.30;;;20.51;52.47;97699.31;10317698;28;21518;-81
2023/08/31 14:34:07;;;;;;;5.28;3.17;;;19.60;99.00;;;20.40;53.35;97699.16;10309227;28;20329;-80
2023/08/31 14:39:12;;;;;;;4.85;3.50;;;19.50;99.70;;;20.51;53.32;97703.63;10306063;28;20241;-79
2023/08/31 14:44:15;;;;;;;5.07;3.13;;;19.60;99.90;;;20.54;54.26;97707.16;10303257;28;20294;-79
2023/08/31 14:49:18;;;;;;;4.30;2.95;;;19.60;99.90;;;20.50;55.29;97700.16;10306823;28;20235;-79
2023/08/31 14:54:23;;;;;;;4.63;3.22;;;19.60;99.90;;;20.36;54.55;97701.66;10304547;28;20226;-79
2023/08/31 14:59:26;;;;;;;124.85;59.63;;;19.40;99.90;;;20.22;55.68;97707.50;10305758;28;20227;-79
2023/08/31 15:04:30;;;;;;;6.78;4.68;;;19.20;99.90;;;19.99;55.94;97701.06;10312742;28;20322;-79
2023/08/31 15:09:34;;;;;;;7.30;4.05;;;19.00;99.90;;;19.77;57.69;97705.88;10314627;28;20254;-79
2023/08/31 15:14:38;;;;;;;5.00;3.67;;;18.80;99.90;;;19.59;63.13;97719.31;10318980;28;20314;-79
2023/08/31 15:19:41;;;;;;;7.50;4.82;;;18.70;99.90;;;19.45;63.90;97722.50;10303896;28;21083;-78
2023/08/31 15:24:47;;;;;;;5.32;3.70;;;18.50;99.90;;;19.41;66.28;97718.97;10304293;28;20318;-79
2023/08/31 15:29:50;;;;;;;6.53;4.80;;;18.40;99.90;;;19.50;67.35;97715.69;10323931;28;20261;-78
2023/08/31 15:34:53;;;;;;;5.25;3.22;;;18.40;99.90;;;19.43;68.46;97724.16;10304175;28;20219;-78
2023/08/31 15:39:58;;;;;;;3.88;2.95;;;18.40;99.90;;;19.31;68.68;97717.03;10306843;28;20230;-79
2023/08/31 15:45:02;;;;;;;5.72;3.13;;;18.40;99.90;;;19.26;71.77;97727.31;10308264;28;20219;-79
2023/08/31 15:50:07;;;;;;;4.93;3.30;;;18.40;99.90;;;19.27;72.51;97731.66;10308332;28;20818;-78
2023/08/31 15:55:12;;;;;;;4.03;3.45;;;18.40;99.90;;;19.29;73.43;97732.56;10314493;28;20233;-77
2023/08/31 16:00:19;;;;;;;4.68;3.22;;;18.40;99.90;;;19.32;73.52;97727.44;10308182;28;20222;-78
2023/08/31 16:05:22;;;;;;;3.42;3.10;;;18.40;99.90;;;19.31;74.11;97730.84;10295712;28;20230;-77
2023/08/31 16:10:28;;;;;;;5.43;3.25;;;18.30;99.90;;;19.25;74.48;97722.97;10300228;28;20969;-77
2023/08/31 16:15:31;;;;;;;7.25;3.55;;;18.20;99.90;;;19.07;76.10;97725.19;10299213;28;20230;-78
2023/08/31 16:20:37;;;;;;;5.05;3.63;;;18.10;99.90;;;18.93;76.55;97727.47;10302327;28;20233;-78
2023/08/31 16:25:41;;;;;;;4.18;3.42;;;18.00;99.90;;;18.97;76.59;97739.66;10291627;28;20241;-78
2023/08/31 16:30:47;;;;;;;5.72;3.92;;;18.00;99.90;;;19.03;76.20;97729.44;10292674;28;20847;-77
2023/08/31 16:35:57;;;;;;;4.20;3.15;;;18.00;99.90;;;18.93;78.21;97721.41;10294818;28;20247;-78
2023/08/31 16:41:02;;;;;;;5.55;3.97;;;18.00;99.90;;;18.82;78.51;97735.00;10301961;28;20235;-78
2023/08/31 16:46:05;;;;;;;5.65;4.10;;;17.80;99.90;;;18.70;79.12;97737.28;10295140;28;20886;-78
2023/08/31 16:51:09;;;;;;;4.78;3.55;;;17.70;99.90;;;18.57;81.27;97743.00;10304521;28;20285;-79
2023/08/31 16:56:14;;;;;;;6.70;3.80;;;17.60;99.90;;;18.44;83.75;97740.13;10304956;28;20376;-79
2023/08/31 17:01:17;;;;;;;6.05;3.83;;;17.50;99.90;;;18.39;86.80;97752.06;10311987;28;20226;-79
2023/08/31 17:06:20;;;;;;;6.13;3.70;;;17.50;99.90;;;18.31;87.55;97755.31;10310436;28;20600;-79
2023/08/31 17:11:24;;;;;;;4.18;3.60;;;17.40;99.90;;;18.12;89.26;97751.41;10319154;28;20350;-79
2023/08/31 17:16:28;;;;;;;6.88;4.07;;;17.30;99.90;;;17.96;88.74;97747.53;10311550;28;20234;-79
2023/08/31 17:21:31;;;;;;;6.05;3.53;;;17.20;99.90;;;17.96;89.09;97742.34;10312022;28;20704;-79
2023/08/31 17:26:36;;;;;;;5.13;3.47;;;17.10;99.90;;;17.94;89.20;97742.34;10313333;28;20257;-78
2023/08/31 17:31:39;;;;;;;5.55;3.50;;;17.00;99.90;;;17.84;90.92;97734.28;10310939;28;20231;-81
2023/08/31 17:36:44;;;;;;;5.03;4.00;;;17.00;99.90;;;17.84;91.31;97736.88;10311660;28;20233;-80
2023/08/31 17:41:49;;;;;;;4.38;3.75;;;17.00;99.90;;;17.79;91.52;97736.75;10314635;28;20234;-81
2023/08/31 17:46:52;;;;;;;6.97;6.47;;;16.90;99.90;;;17.71;93.06;97745.97;10308354;28;20594;-82
2023/08/31 17:51:55;;;;;;;4.90;4.50;;;16.90;99.90;;;17.70;93.59;97744.22;10307058;28;20231;-80
2023/08/31 17:57:00;;;;;;;6.13;4.00;;;16.80;99.90;;;17.65;93.06;97751.84;10306655;28;20714;-80
2023/08/31 18:02:03;;;;;;;4.88;3.88;;;16.70;99.90;;;17.52;92.42;97750.63;10305312;28;20278;-78
2023/08/31 18:07:07;;;;;;;5.50;4.95;;;16.60;99.90;;;17.41;93.00;97756.34;10297515;28;20235;-78
2023/08/31 18:12:12;;;;;;;6.78;4.70;;;16.50;99.90;;;17.21;93.71;97750.59;10311337;28;20227;-79
2023/08/31 18:17:15;;;;;;;4.57;4.18;;;16.40;99.90;;;17.20;94.43;97752.31;10324129;28;20767;-79
2023/08/31 18:22:18;;;;;;;5.15;4.20;;;16.40;99.90;;;17.10;94.71;97773.53;10315025;28;20325;-78
2023/08/31 18:27:23;;;;;;;4.95;3.90;;;16.30;99.90;;;17.07;94.56;97766.56;10314119;28;20792;-78
2023/08/31 18:32:27;;;;;;;4.65;4.03;;;16.20;99.90;;;17.11;96.02;97772.69;10316243;28;20223;-79
2023/08/31 18:37:30;;;;;;;6.53;3.88;;;16.30;99.90;;;17.08;97.15;97780.34;10305629;28;20231;-79
2023/08/31 18:42:39;;;;;;;6.40;4.03;;;16.20;99.90;;;16.99;96.90;97791.25;10307209;28;20237;-77
2023/08/31 18:47:42;;;;;;;4.53;3.97;;;16.10;99.90;;;16.86;97.33;97792.59;10303647;28;20324;-78
2023/08/31 18:52:45;;;;;;;4.65;4.10;;;16.00;99.90;;;16.84;98.20;97788.22;10302250;28;20226;-80
2023/08/31 18:57:50;;;;;;;4.97;3.83;;;16.10;99.90;;;16.84;98.04;97794.25;10305555;28;20231;-79
2023/08/31 19:02:53;;;;;;;7.20;4.05;;;16.00;99.90;;;16.87;98.66;97806.38;10303309;28;20235;-79
2023/08/31 19:07:56;;;;;;;4.78;4.00;;;16.00;99.90;;;16.87;99.19;97811.53;10307650;28;20353;-78
2023/08/31 19:13:06;;;;;;;4.97;4.47;;;16.00;99.90;;;16.75;100.00;97830.06;10306541;28;20222;-79
2023/08/31 19:18:10;;;;;;;4.78;4.18;;;15.90;99.90;;;16.73;100.00;97830.84;10313826;28;20262;-79
2023/08/31 19:23:14;;;;;;;4.97;4.47;;;15.90;99.90;;;16.58;100.00;97842.44;10313700;28;20234;-81
2023/08/31 19:28:18;;;;;;;6.95;4.68;;;15.70;99.90;;;16.52;100.00;97834.50;10304983;28;20237;-80
2023/08/31 19:33:22;;;;;;;6.63;4.13;;;15.70;99.90;;;16.36;100.00;97827.06;10322745;28;20223;-81
2023/08/31 19:38:26;;;;;;;5.50;4.07;;;15.70;99.90;;;16.24;100.00;97836.97;10303558;28;20254;-82
2023/08/31 19:43:30;;;;;;;5.32;4.03;;;15.50;99.90;;;16.22;100.00;97836.88;10301334;28;20227;-78
2023/08/31 19:48:33;;;;;;;5.43;4.25;;;15.50;99.90;;;16.26;100.00;97848.22;10302282;28;20230;-77
2023/08/31 19:53:39;;;;;;;17.77;15.88;;;15.50;99.90;;;16.05;100.00;97836.31;10304389;28;20219;-81
2023/08/31 19:58:43;;;;;;;5.18;4.07;;;15.40;99.90;;;15.97;100.00;97819.72;10314357;28;20262;-82
2023/08/31 20:03:47;;;;;;;5.32;3.72;;;15.30;99.90;;;15.83;100.00;97813.19;10305258;28;20262;-81
2023/08/31 20:08:50;;;;;;;4.82;3.90;;;15.20;99.90;;;15.72;100.00;97833.41;10310472;28;20260;-81
2023/08/31 20:13:55;;;;;;;4.30;3.88;;;15.20;99.90;;;15.70;100.00;97830.78;10300969;28;20236;-81
2023/08/31 20:19:00;;;;;;;4.53;4.07;;;15.10;99.90;;;15.68;100.00;97837.59;10307078;28;20223;-81
2023/08/31 20:24:04;;;;;;;6.93;5.05;;;15.10;99.90;;;15.64;100.00;97856.28;10308252;28;20245;-80
2023/08/31 20:29:09;;;;;;;5.22;4.72;;;15.10;99.90;;;15.61;100.00;97857.88;10308533;28;20234;-80
2023/08/31 20:34:12;;;;;;;5.20;4.68;;;15.10;99.90;;;15.71;100.00;97850.59;10306058;28;20231;-81
2023/08/31 20:39:16;;;;;;;5.82;5.20;;;15.10;99.90;;;15.58;100.00;97853.47;10313490;28;20226;-82
2023/08/31 20:44:21;;;;;;;7.82;4.90;;;15.00;99.90;;;15.49;100.00;97861.75;10306620;28;21359;-79
2023/08/31 20:49:24;;;;;;;5.90;5.30;;;15.00;99.90;;;15.42;100.00;97854.59;10306680;28;20304;-80
2023/08/31 20:54:27;;;;;;;5.53;4.90;;;14.90;99.90;;;15.47;100.00;97842.78;10314301;28;20611;-81
2023/08/31 20:59:32;;;;;;;5.47;4.93;;;14.90;99.90;;;15.43;100.00;97851.22;10323363;28;20310;-81
2023/08/31 21:04:36;;;;;;;5.32;4.47;;;14.90;99.90;;;15.46;100.00;97855.59;10308050;28;20724;-81